»·PEaware :: N149CD KOXR-KWJF

N149CD :: KOXR-KWJF

FLIGHT INFORMATION

Flight Status: Arrived
Operator: Privately registered:
United States
More flights under this callsign
Pilot: Nathan E. (30132)
Aircraft: CESSNA 172 SKYHAWK
(C172)
More flights by this aircraft type
Origin: KOXR Oxnard
United States
Destination: KWJF Gen Fox
United States
More flights between these airports :: More routes between these airports
Route: +FIM V386 PMD
File this flight plan on PilotEdge
Remarks: TEC route VTUP4
Altitude:
(Current/Filed)
7,000ft
Speed:
(Current/Filed)
110kts
Departed: 07-Sep-20 06:46 PM
Arrived: 07-Sep-20 07:28 PM
Distance/Time
Traveled:
59nm/0:42
Distance/Time
To Go:
Arrived

Flight Plot

Page will automatically refresh every two minutes.


Map Options




Map Legend


Flown Route
Filed Route
Departure Airport
Arrival Airport
Navaid (VOR, NDB)
Fix

Horizontal Profiles

Position Reports

Time Latitude Longitude Heading Altitude Ground
Speed
07-Sep-20 18:32 34.198999 -119.197767 269 43ft 0kts
07-Sep-20 18:33 34.198999 -119.197768 269 43ft 0kts
07-Sep-20 18:34 34.198999 -119.197768 269 43ft 0kts
07-Sep-20 18:35 34.198999 -119.197768 269 43ft 0kts
07-Sep-20 18:36 34.198999 -119.197768 269 43ft 0kts
07-Sep-20 18:37 34.198999 -119.197768 269 43ft 0kts
07-Sep-20 18:38 34.198999 -119.197768 269 43ft 0kts
07-Sep-20 18:39 34.198999 -119.197768 269 43ft 0kts
07-Sep-20 18:40 34.198999 -119.197768 269 43ft 0kts
07-Sep-20 18:41 34.198999 -119.197768 269 43ft 0kts
07-Sep-20 18:41 34.198999 -119.197768 269 43ft 0kts
07-Sep-20 18:43 34.199005 -119.197783 317 43ft 0kts
07-Sep-20 18:44 34.199869 -119.197232 302 43ft 0kts
07-Sep-20 18:44 34.200659 -119.197542 338 43ft 10kts
07-Sep-20 18:46 34.201201 -119.220972 266 623ft 74kts
07-Sep-20 18:47 34.201583 -119.245847 266 1479ft 74kts
07-Sep-20 18:47 34.201865 -119.266694 267 2161ft 75kts
07-Sep-20 18:48 34.202139 -119.291703 267 2940ft 75kts
07-Sep-20 18:49 34.203349 -119.316694 299 3683ft 78kts
07-Sep-20 18:50 34.220089 -119.307262 67 4372ft 88kts
07-Sep-20 18:51 34.229376 -119.279596 68 5042ft 89kts
07-Sep-20 18:52 34.238514 -119.251568 67 5675ft 90kts
07-Sep-20 18:53 34.247719 -119.223041 66 6279ft 91kts
07-Sep-20 18:54 34.256930 -119.194374 66 6850ft 92kts
07-Sep-20 18:55 34.267549 -119.161251 66 7009ft 117kts
07-Sep-20 18:56 34.279430 -119.123850 66 7009ft 119kts
07-Sep-20 18:57 34.291411 -119.086305 66 7009ft 119kts
07-Sep-20 18:58 34.303323 -119.049002 65 7009ft 119kts
07-Sep-20 18:59 34.315261 -119.011584 65 7009ft 119kts
07-Sep-20 19:00 34.327228 -118.974035 65 7009ft 119kts
07-Sep-20 19:01 34.339200 -118.936422 65 7008ft 120kts
07-Sep-20 19:02 34.351259 -118.898491 64 7000ft 121kts
07-Sep-20 19:03 34.363740 -118.860748 63 7000ft 120kts
07-Sep-20 19:04 34.376528 -118.823083 62 7000ft 121kts
07-Sep-20 19:05 34.389368 -118.785283 62 7002ft 121kts
07-Sep-20 19:06 34.402242 -118.747361 63 7009ft 122kts
07-Sep-20 19:07 34.415179 -118.709193 64 7017ft 123kts
07-Sep-20 19:08 34.428199 -118.670713 65 7024ft 123kts
07-Sep-20 19:09 34.441274 -118.631974 66 7031ft 124kts
07-Sep-20 19:10 34.452787 -118.597789 65 7035ft 100kts
07-Sep-20 19:11 34.463229 -118.566873 65 7043ft 99kts
07-Sep-20 19:12 34.473675 -118.535891 65 7043ft 99kts
07-Sep-20 19:13 34.484224 -118.504527 66 6974ft 96kts
07-Sep-20 19:14 34.494436 -118.474189 66 6940ft 105kts
07-Sep-20 19:15 34.500197 -118.435409 81 6986ft 125kts
07-Sep-20 19:16 34.504813 -118.393443 81 6990ft 125kts
07-Sep-20 19:17 34.523118 -118.363789 15 6867ft 125kts
07-Sep-20 19:18 34.554580 -118.344093 21 6414ft 123kts
07-Sep-20 19:19 34.582087 -118.325647 19 6405ft 106kts
07-Sep-20 19:20 34.607117 -118.308858 19 6409ft 102kts
07-Sep-20 19:21 34.636593 -118.289046 21 5486ft 131kts
07-Sep-20 19:22 34.667381 -118.265089 22 4474ft 130kts
07-Sep-20 19:23 34.698421 -118.242704 25 3466ft 131kts
07-Sep-20 19:24 34.723774 -118.217522 74 3313ft 122kts
07-Sep-20 19:25 34.734149 -118.182255 352 3164ft 89kts
07-Sep-20 19:26 34.746617 -118.196299 265 2627ft 60kts
07-Sep-20 19:27 34.742475 -118.213312 252 2340ft 20kts
07-Sep-20 19:28 34.740575 -118.214723 165 2340ft 16kts
07-Sep-20 19:29 34.739415 -118.214706 253 2340ft 0kts

Navigation Log

Ident Type
Flight plan parsing failed, navigation log unavailable